Time;durP1;ratioP1;P1;durP2;ratioP2;P2;SDS_P1;SDS_P2;PMS_P1;PMS_P2;Temp;Humidity;BMP_temperature;BMP_pressure;BME280_temperature;BME280_humidity;BME280_pressure;Samples;Min_cycle;Max_cycle;Signal;HPM_P1;HPM_P2
2022/08/23 00:01:46;;;;;;;30.00;5.33;;;;;;;18.10;90.15;99145.62;1741610;80;21043;-77
2022/08/23 00:04:24;;;;;;;41.48;6.65;;;;;;;18.11;90.15;99148.61;1755281;80;20967;-76
2022/08/23 00:06:53;;;;;;;29.20;5.08;;;;;;;18.10;89.77;99147.00;1759085;80;21471;-76
2022/08/23 00:09:22;;;;;;;34.92;5.67;;;;;;;18.10;89.51;99148.39;1764555;80;20869;-77
2022/08/23 00:11:56;;;;;;;33.95;4.80;;;;;;;18.11;89.72;99155.55;1764465;80;21398;-76
2022/08/23 00:14:28;;;;;;;41.65;5.50;;;;;;;18.11;89.61;99156.94;1754350;80;21505;-79
2022/08/23 00:16:59;;;;;;;40.73;5.70;;;;;;;18.10;89.55;99153.36;1749747;80;20979;-77
2022/08/23 00:19:28;;;;;;;34.95;5.87;;;;;;;18.11;89.38;99150.80;1760192;80;21503;-77
2022/08/23 00:21:59;;;;;;;37.60;6.00;;;;;;;18.11;88.96;99150.80;1763432;80;21554;-78
2022/08/23 00:24:35;;;;;;;41.28;5.45;;;;;;;18.10;88.94;99152.56;1740675;80;20908;-75
2022/08/23 00:27:08;;;;;;;32.10;6.12;;;;;;;18.11;89.01;99150.80;1738093;80;20895;-77
2022/08/23 00:29:46;;;;;;;;;;;;;;;18.11;89.02;99156.94;1773783;80;20963;-77
2022/08/23 00:32:26;;;;;;;34.25;5.15;;;;;;;18.08;88.73;99161.27;1754770;80;20096;-77
2022/08/23 00:34:54;;;;;;;27.07;5.22;;;;;;;18.06;88.71;99158.06;1780279;80;21492;-77
2022/08/23 00:37:23;;;;;;;33.38;5.80;;;;;;;18.06;88.74;99151.71;1760069;80;21523;-79
2022/08/23 00:39:56;;;;;;;25.02;5.45;;;;;;;18.04;88.34;99154.86;1753733;80;20870;-79
2022/08/23 00:48:31;;;;;;;34.85;5.00;;;;;;;18.06;88.08;99151.71;1754992;80;20982;-80
2022/08/23 00:51:20;;;;;;;27.30;4.45;;;;;;;18.01;88.14;99158.97;1760715;81;21076;-80
2022/08/23 00:53:54;;;;;;;32.28;4.83;;;;;;;17.98;88.28;99161.11;1748600;80;20995;-81
2022/08/23 00:56:33;;;;;;;26.65;5.60;;;;;;;17.92;88.25;99161.22;1753690;80;21259;-76
2022/08/23 00:59:06;;;;;;;28.10;4.47;;;;;;;17.86;88.69;99160.77;1747170;80;20962;-78
2022/08/23 01:01:42;;;;;;;33.83;5.25;;;;;;;17.85;89.04;99159.16;1741450;80;20979;-77
2022/08/23 01:04:10;;;;;;;34.18;5.53;;;;;;;17.80;89.37;99156.13;1760808;80;20970;-82
2022/08/23 01:06:50;;;;;;;26.50;5.08;;;;;;;17.76;89.32;99155.27;1744502;80;20853;-82
2022/08/23 01:09:21;;;;;;;28.02;5.40;;;;;;;17.70;89.50;99155.36;1780952;80;20964;-81
2022/08/23 01:12:00;;;;;;;24.57;5.47;;;;;;;17.69;89.58;99160.70;1760025;80;20885;-82
2022/08/23 01:14:55;;;;;;;31.00;4.92;;;;;;;17.68;89.55;99159.09;1759030;80;20864;-82
2022/08/23 01:17:29;;;;;;;30.92;5.00;;;;;;;17.67;89.65;99167.21;1767816;80;21621;-81
2022/08/23 01:20:01;;;;;;;23.25;4.45;;;;;;;17.63;89.39;99168.30;1759786;80;20924;-81
2022/08/23 01:22:49;;;;;;;16.93;4.60;;;;;;;17.59;89.86;99173.78;1757239;80;20936;-80
2022/08/23 01:25:20;;;;;;;31.70;4.87;;;;;;;17.54;89.85;99174.09;1691048;80;20995;-80
2022/08/23 01:27:58;;;;;;;28.65;5.03;;;;;;;17.48;90.23;99168.64;1740075;80;20897;-81
2022/08/23 01:30:30;;;;;;;25.08;5.67;;;;;;;17.39;90.52;99170.86;1738397;80;21241;-81
2022/08/23 01:33:05;;;;;;;30.10;5.30;;;;;;;17.31;90.96;99170.55;1764908;80;20906;-82
2022/08/23 01:35:46;;;;;;;22.87;4.87;;;;;;;17.25;91.32;99165.89;1765199;80;20927;-82
2022/08/23 01:38:15;;;;;;;27.82;5.30;;;;;;;17.19;91.76;99174.89;1767549;80;20907;-81
2022/08/23 01:40:46;;;;;;;18.98;3.67;;;;;;;17.09;92.21;99169.36;1762460;80;20980;-81
2022/08/23 01:43:18;;;;;;;23.85;4.62;;;;;;;16.99;92.54;99173.53;1769449;80;21159;-80
2022/08/23 01:45:50;;;;;;;21.80;4.97;;;;;;;16.88;93.17;99175.30;1778564;80;20971;-81
2022/08/23 01:48:19;;;;;;;15.95;4.00;;;;;;;16.79;93.65;99174.72;1761803;80;21101;-80
2022/08/23 01:50:55;;;;;;;28.90;5.92;;;;;;;16.69;94.02;99174.76;1765121;80;20888;-81
2022/08/23 01:53:24;;;;;;;22.93;5.10;;;;;;;16.60;94.73;99177.50;1775887;80;20855;-81
2022/08/23 01:55:54;;;;;;;15.70;4.20;;;;;;;16.55;95.62;99176.41;1745650;80;21419;-81
2022/08/23 01:58:29;;;;;;;18.95;4.65;;;;;;;16.51;96.04;99179.90;1756581;80;21549;-81
2022/08/23 02:00:58;;;;;;;26.05;4.53;;;;;;;16.48;96.34;99174.28;1762222;80;20899;-75
2022/08/23 02:03:30;;;;;;;22.20;4.33;;;;;;;16.44;96.58;99179.75;1756267;80;20893;-76
2022/08/23 02:06:00;;;;;;;17.62;4.15;;;;;;;16.40;97.02;99174.72;1760730;80;20903;-76
2022/08/23 02:11:22;;;;;;;14.38;3.65;;;;;;;16.37;97.91;99170.48;1758536;80;20982;-75
2022/08/23 02:13:57;;;;;;;32.23;4.50;;;;;;;16.40;97.87;99170.56;1751566;80;21061;-75
2022/08/23 02:16:39;;;;;;;18.55;4.28;;;;;;;16.46;97.60;99171.08;1753053;80;21495;-75
2022/08/23 02:19:14;;;;;;;31.60;4.92;;;;;;;16.51;97.62;99165.24;1782626;80;20916;-77
2022/08/23 02:21:44;;;;;;;22.32;4.08;;;;;;;16.56;97.07;99164.16;1768625;80;21117;-78
2022/08/23 02:24:18;;;;;;;25.08;3.90;;;;;;;16.59;96.58;99167.58;1769418;80;21018;-81
2022/08/23 02:26:49;;;;;;;20.77;5.60;;;;;;;16.63;96.51;99171.23;1767391;80;20891;-80
2022/08/23 02:29:17;;;;;;;23.42;4.55;;;;;;;16.68;96.21;99176.51;1758365;80;21523;-81
2022/08/23 02:31:48;;;;;;;24.25;4.35;;;;;;;16.71;95.84;99172.42;1753706;80;21085;-81
2022/08/23 02:34:20;;;;;;;21.75;3.95;;;;;;;16.74;95.73;99175.85;1756168;80;21109;-79
2022/08/23 02:36:52;;;;;;;23.35;5.20;;;;;;;16.77;95.09;99173.70;1779149;80;20904;-79
2022/08/23 02:39:27;;;;;;;21.35;4.12;;;;;;;16.81;94.64;99179.31;1750180;80;20888;-77
2022/08/23 02:41:56;;;;;;;21.23;4.08;;;;;;;16.82;94.22;99175.38;1740302;80;21438;-78
2022/08/23 02:44:27;;;;;;;14.25;4.00;;;;;;;16.84;93.87;99179.97;1757177;80;21000;-78
2022/08/23 02:46:58;;;;;;;27.50;4.28;;;;;;;16.84;93.73;99179.97;1775409;80;22100;-80
2022/08/23 02:49:30;;;;;;;29.98;4.42;;;;;;;16.83;93.36;99183.33;1773921;80;21034;-81
2022/08/23 02:52:01;;;;;;;21.52;4.78;;;;;;;16.83;93.02;99180.55;1745487;80;20971;-82
2022/08/23 02:54:31;;;;;;;18.30;4.17;;;;;;;16.86;92.96;99187.34;1728491;80;21542;-78
2022/08/23 02:57:00;;;;;;;31.40;5.17;;;;;;;16.91;92.52;99187.63;1769668;80;20845;-77
2022/08/23 02:59:30;;;;;;;20.82;3.98;;;;;;;16.93;92.22;99186.09;1765271;80;21164;-78
2022/08/23 03:02:04;;;;;;;34.65;4.58;;;;;;;16.98;91.75;99194.11;1773786;80;21034;-77
2022/08/23 03:04:37;;;;;;;19.55;4.03;;;;;;;17.01;91.39;99194.77;1760351;80;21507;-78
2022/08/23 03:07:08;;;;;;;11.97;4.70;;;;;;;17.03;91.08;99197.98;1747282;80;21491;-78
2022/08/23 03:09:37;;;;;;;;;;;;;;;17.05;90.66;99203.95;1758806;80;20911;-77
2022/08/23 03:12:09;;;;;;;16.55;4.30;;;;;;;17.07;90.56;99208.55;1751172;80;21156;-77
2022/08/23 03:14:37;;;;;;;;;;;;;;;17.07;90.10;99203.01;1753919;80;20889;-78
2022/08/23 03:17:05;;;;;;;21.45;4.08;;;;;;;17.08;89.87;99209.35;1749349;80;20429;-78
2022/08/23 03:19:37;;;;;;;13.35;3.83;;;;;;;17.09;89.86;99215.92;1769949;80;20892;-78
2022/08/23 03:22:15;;;;;;;17.40;3.85;;;;;;;17.12;89.72;99214.38;1771186;80;21003;-78
2022/08/23 03:24:45;;;;;;;12.43;3.72;;;;;;;17.13;89.35;99212.62;1762277;80;21135;-77
2022/08/23 03:27:12;;;;;;;18.82;4.70;;;;;;;17.15;89.06;99221.39;1765565;80;20919;-78
2022/08/23 03:29:46;;;;;;;20.25;4.08;;;;;;;17.18;89.03;99219.85;1755807;80;20924;-76
2022/08/23 03:32:19;;;;;;;15.35;4.62;;;;;;;17.21;88.96;99228.02;1768171;80;21576;-76
2022/08/23 03:34:46;;;;;;;29.35;5.03;;;;;;;17.23;88.84;99229.27;1751925;80;20968;-76
2022/08/23 03:37:17;;;;;;;18.00;3.67;;;;;;;17.23;88.74;99226.48;1765438;80;21197;-77
2022/08/23 03:39:45;;;;;;;23.90;3.83;;;;;;;17.23;88.61;99235.39;1765325;80;28221;-78
2022/08/23 03:42:20;;;;;;;20.10;4.10;;;;;;;17.24;88.58;99238.38;1754576;80;21970;-77
2022/08/23 03:44:50;;;;;;;22.40;4.45;;;;;;;17.27;88.70;99239.84;1732498;80;21436;-78
2022/08/23 03:47:22;;;;;;;19.62;4.35;;;;;;;17.33;88.30;99241.73;1766861;80;20849;-80
2022/08/23 03:49:48;;;;;;;21.93;4.72;;;;;;;17.32;88.35;99236.77;1730093;82;21423;-78
2022/08/23 03:52:15;;;;;;;21.45;4.28;;;;;;;17.33;88.16;99243.11;1755430;80;20888;-81
2022/08/23 03:54:45;;;;;;;26.85;5.17;;;;;;;17.34;87.84;99245.49;1764991;80;20888;-83
2022/08/23 03:57:17;;;;;;;;;;;;;;;17.36;87.78;99240.96;1762449;80;20972;-82
2022/08/23 03:59:49;;;;;;;17.12;4.12;;;;;;;17.40;87.44;99241.25;1764182;80;20451;-82
2022/08/23 04:02:18;;;;;;;22.73;4.72;;;;;;;17.45;87.37;99242.91;1780115;80;21228;-81
2022/08/23 04:04:51;;;;;;;19.92;4.53;;;;;;;17.46;86.81;99248.09;1756640;80;20986;-79
2022/08/23 04:07:34;;;;;;;24.23;4.28;;;;;;;17.50;86.68;99246.77;1778993;80;20939;-80
2022/08/23 04:10:14;;;;;;;14.55;4.10;;;;;;;17.56;86.43;99247.27;1737765;80;21527;-78
2022/08/23 04:12:43;;;;;;;14.47;3.50;;;;;;;17.61;86.47;99247.77;1715170;80;21125;-78
2022/08/23 04:15:17;;;;;;;24.52;5.15;;;;;;;17.63;86.17;99248.20;1753334;80;21122;-79
2022/08/23 04:17:44;;;;;;;23.38;5.00;;;;;;;17.66;86.46;99249.47;1755776;80;20908;-79
2022/08/23 04:20:13;;;;;;;21.93;4.33;;;;;;;17.69;86.71;99250.92;1750780;80;20869;-73
2022/08/23 04:22:54;;;;;;;20.05;4.78;;;;;;;17.74;86.72;99245.64;1742812;81;20889;-79
2022/08/23 04:25:25;;;;;;;12.80;4.37;;;;;;;17.77;86.70;99247.67;1752674;80;20975;-79
2022/08/23 04:27:59;;;;;;;21.57;4.45;;;;;;;17.81;86.22;99252.70;1771004;80;21058;-79
2022/08/23 04:30:32;;;;;;;19.07;4.87;;;;;;;17.86;86.36;99251.59;1757982;80;20958;-80
2022/08/23 04:32:58;;;;;;;;;;;;;;;17.91;86.62;99251.28;1763443;80;21165;-78
2022/08/23 04:35:26;;;;;;;23.32;4.28;;;;;;;18.02;86.49;99257.78;1769272;80;20117;-79
2022/08/23 04:37:58;;;;;;;24.72;4.15;;;;;;;18.10;85.88;99253.36;1752194;82;20967;-76
2022/08/23 04:43:15;;;;;;;19.87;3.70;;;;;;;18.33;84.04;99252.52;1752150;82;20924;-76
2022/08/23 04:45:50;;;;;;;16.95;4.85;;;;;;;18.44;84.18;99259.03;1752463;82;21022;-76
2022/08/23 04:48:22;;;;;;;13.20;3.65;;;;;;;18.53;83.51;99258.73;1750305;81;20959;-75
2022/08/23 04:50:49;;;;;;;18.40;4.08;;;;;;;18.62;83.07;99259.29;1751333;82;20941;-78
2022/08/23 04:53:22;;;;;;;17.67;4.62;;;;;;;18.72;82.61;99258.05;1752505;82;21138;-74
2022/08/23 04:55:53;;;;;;;18.48;4.47;;;;;;;18.86;81.02;99258.02;1751277;81;21006;-73
2022/08/23 04:58:22;;;;;;;20.68;5.03;;;;;;;19.00;80.58;99260.39;1752522;82;20931;-76
2022/08/23 05:00:57;;;;;;;22.32;3.85;;;;;;;19.18;79.18;99261.16;1729483;82;20896;-74
2022/08/23 05:03:27;;;;;;;24.35;3.95;;;;;;;19.35;79.20;99260.56;1752457;82;21530;-80
2022/08/23 05:06:03;;;;;;;21.30;4.10;;;;;;;19.51;78.31;99262.56;1728906;82;21502;-72
2022/08/23 05:08:34;;;;;;;19.73;4.37;;;;;;;19.66;77.21;99260.69;1729180;82;20976;-70
2022/08/23 05:11:06;;;;;;;18.67;3.98;;;;;;;19.83;75.54;99268.41;1752338;82;21438;-71
2022/08/23 05:13:37;;;;;;;17.05;3.80;;;;;;;19.99;73.42;99268.16;1752883;82;20860;-71
2022/08/23 05:16:04;;;;;;;;;;;;;;;20.16;72.28;99268.89;1755273;82;21010;-71
2022/08/23 05:18:42;;;;;;;;;;;;;;;20.29;71.82;99271.55;1754090;82;21146;-72
2022/08/23 05:21:16;;;;;;;38.58;4.65;;;;;;;20.41;71.61;99271.27;1750774;81;20075;-71
2022/08/23 05:23:51;;;;;;;26.27;4.30;;;;;;;20.53;71.83;99279.91;1729305;82;20983;-71
2022/08/23 05:26:28;;;;;;;25.80;3.70;;;;;;;20.64;69.99;99274.41;1729490;82;21490;-71
2022/08/23 05:29:02;;;;;;;37.05;5.90;;;;;;;20.74;69.71;99284.23;1752502;82;20936;-72
2022/08/23 05:31:35;;;;;;;32.65;4.70;;;;;;;20.81;68.07;99277.86;1751756;82;21924;-73
2022/08/23 05:34:08;;;;;;;25.27;4.40;;;;;;;20.90;67.84;99278.30;1752468;81;21423;-74
2022/08/23 05:36:39;;;;;;;23.57;4.90;;;;;;;20.98;67.96;99282.73;1752241;81;20916;-73
2022/08/23 05:39:08;;;;;;;20.30;4.60;;;;;;;21.07;66.36;99281.77;1751491;82;20979;-74
2022/08/23 05:41:39;;;;;;;27.58;4.67;;;;;;;21.14;65.57;99281.00;1753158;80;21021;-75
2022/08/23 05:44:09;;;;;;;25.57;4.80;;;;;;;21.21;65.93;99286.64;1768366;80;21925;-73
2022/08/23 05:46:40;;;;;;;26.60;4.25;;;;;;;21.33;66.16;99288.28;1762248;80;20932;-72
2022/08/23 05:49:22;;;;;;;25.15;4.45;;;;;;;21.46;65.19;99290.09;1727046;80;21072;-70
2022/08/23 05:51:52;;;;;;;27.17;4.80;;;;;;;21.57;63.76;99293.11;1754888;80;21145;-69
2022/08/23 05:54:22;;;;;;;34.73;5.47;;;;;;;21.67;62.29;99313.28;1765637;80;21435;-71
2022/08/23 05:56:50;;;;;;;37.13;4.92;;;;;;;21.72;62.65;99314.30;1768989;80;21198;-70
2022/08/23 05:59:19;;;;;;;31.48;5.25;;;;;;;21.78;63.15;99324.48;1771130;80;20929;-70
2022/08/23 06:01:51;;;;;;;35.98;5.55;;;;;;;21.85;62.12;99325.09;1760650;80;21415;-69
2022/08/23 06:04:20;;;;;;;;;;;;;;;21.88;62.03;99320.91;1758491;80;20947;-70
2022/08/23 06:06:57;;;;;;;46.65;5.92;;;;;;;21.92;62.29;99321.72;1755259;80;20092;-71
2022/08/23 06:09:24;;;;;;;32.60;5.83;;;;;;;21.95;61.79;99321.52;1757277;80;21898;-69
2022/08/23 06:11:58;;;;;;;28.85;5.67;;;;;;;22.01;61.32;99331.08;1750612;80;20905;-70
2022/08/23 06:14:30;;;;;;;44.75;6.22;;;;;;;22.10;61.92;99334.91;1753192;80;42062;-70
2022/08/23 06:16:57;;;;;;;48.17;6.50;;;;;;;22.25;61.97;99329.53;1763877;80;21019;-72
2022/08/23 06:19:32;;;;;;;36.10;4.78;;;;;;;22.40;60.46;99333.93;1774837;80;20964;-76
2022/08/23 06:22:22;;;;;;;44.77;7.22;;;;;;;22.52;59.52;99344.71;1780177;80;21271;-73
2022/08/23 06:24:49;;;;;;;31.33;5.37;;;;;;;22.64;59.38;99333.08;1773779;80;20888;-74
2022/08/23 06:27:23;;;;;;;37.38;6.25;;;;;;;22.72;58.10;99343.06;1740579;80;21507;-73
2022/08/23 06:29:52;;;;;;;36.00;6.05;;;;;;;22.78;57.88;99344.05;1776763;80;20876;-74
2022/08/23 06:32:37;;;;;;;47.78;7.65;;;;;;;22.84;58.80;99347.47;1735760;81;21015;-72
2022/08/23 06:35:23;;;;;;;37.83;6.08;;;;;;;22.91;57.87;99344.66;1722183;81;20880;-72
2022/08/23 06:37:55;;;;;;;48.45;7.33;;;;;;;23.01;57.00;99346.64;1755985;81;20937;-71
2022/08/23 06:40:42;;;;;;;59.23;6.30;;;;;;;23.12;56.72;99350.77;1765647;80;20836;-72
2022/08/23 06:43:22;;;;;;;76.65;7.83;;;;;;;23.25;56.96;99351.94;1726489;82;21016;-71
2022/08/23 06:46:13;;;;;;;50.75;7.62;;;;;;;23.42;57.51;99353.07;1718429;82;21042;-72
2022/08/23 06:48:44;;;;;;;51.05;7.90;;;;;;;23.60;55.22;99352.42;1721291;82;22020;-72
2022/08/23 06:51:30;;;;;;;65.97;7.85;;;;;;;23.74;55.30;99349.31;1706860;83;20907;-72
2022/08/23 06:54:07;;;;;;;46.28;7.00;;;;;;;23.87;54.77;99352.64;1703299;83;20881;-75
2022/08/23 06:56:57;;;;;;;53.40;7.78;;;;;;;24.02;53.46;99353.35;1702250;83;21109;-74
2022/08/23 06:59:31;;;;;;;61.33;10.55;;;;;;;24.17;54.55;99361.06;1705167;83;20977;-75
2022/08/23 07:02:06;;;;;;;58.95;8.53;;;;;;;24.32;54.09;99361.95;1698570;83;20892;-73
2022/08/23 07:04:40;;;;;;;65.80;8.60;;;;;;;24.51;54.02;99363.40;1655888;83;21658;-74
2022/08/23 07:07:12;;;;;;;76.40;10.58;;;;;;;24.69;51.94;99364.65;1768826;80;21561;-74
2022/08/23 07:09:40;;;;;;;65.65;10.98;;;;;;;24.78;49.52;99363.56;1774029;80;20903;-71
2022/08/23 07:12:08;;;;;;;60.88;8.05;;;;;;;24.85;50.73;99360.66;1780224;80;20935;-74
2022/08/23 07:14:39;;;;;;;71.15;9.33;;;;;;;24.91;50.07;99363.20;1774346;80;21553;-72
2022/08/23 07:17:08;;;;;;;78.67;9.28;;;;;;;24.96;49.76;99366.99;1765639;80;20891;-74
2022/08/23 07:19:40;;;;;;;83.67;10.55;;;;;;;25.05;50.60;99369.31;1731321;81;21035;-77
2022/08/23 07:22:12;;;;;;;82.70;9.30;;;;;;;25.16;50.77;99368.58;1763112;80;20944;-76
2022/08/23 07:24:38;;;;;;;85.75;10.78;;;;;;;25.30;50.95;99360.61;1759144;81;21160;-75
2022/08/23 07:27:08;;;;;;;75.95;9.58;;;;;;;25.42;50.17;99368.45;1751577;80;21128;-73
2022/08/23 07:29:38;;;;;;;77.55;10.88;;;;;;;25.53;48.32;99370.53;1731329;80;21064;-78
2022/08/23 07:32:05;;;;;;;90.83;11.88;;;;;;;25.63;48.64;99368.80;1729966;80;20990;-75
2022/08/23 07:34:32;;;;;;;78.02;11.00;;;;;;;25.71;47.99;99379.38;1730354;82;20988;-78
2022/08/23 07:37:00;;;;;;;86.87;10.82;;;;;;;25.74;47.55;99370.09;1724740;82;21109;-87
2022/08/23 07:39:28;;;;;;;83.05;10.82;;;;;;;25.77;47.45;99373.47;1671238;85;21559;-84
2022/08/23 07:41:57;;;;;;;99.47;12.10;;;;;;;25.83;47.85;99371.17;1658522;84;21194;-84
2022/08/23 07:44:23;;;;;;;108.25;12.25;;;;;;;25.95;48.32;99372.00;1669731;82;21141;-74
2022/08/23 07:46:50;;;;;;;82.40;11.22;;;;;;;26.11;47.15;99365.72;1722956;82;21170;-77
2022/08/23 07:49:17;;;;;;;91.42;12.10;;;;;;;26.17;47.35;99364.02;1724362;82;21074;-76
2022/08/23 07:51:48;;;;;;;89.03;12.18;;;;;;;26.23;47.76;99370.76;1717486;81;21126;-77
2022/08/23 07:54:15;;;;;;;97.67;12.88;;;;;;;26.30;47.90;99372.05;1730472;81;20913;-79
2022/08/23 07:56:43;;;;;;;71.33;11.45;;;;;;;26.41;46.96;99371.12;1720525;82;21366;-75
2022/08/23 07:59:14;;;;;;;110.32;13.48;;;;;;;26.52;46.40;99370.33;1727194;80;20915;-78
2022/08/23 08:01:43;;;;;;;96.05;12.37;;;;;;;26.68;46.43;99377.47;1723932;82;20856;-73
2022/08/23 08:04:11;;;;;;;74.40;11.95;;;;;;;26.85;45.37;99373.55;1735350;82;21740;-78
2022/08/23 08:06:45;;;;;;;111.70;15.40;;;;;;;26.95;45.25;99373.96;1712950;82;20960;-76
2022/08/23 08:09:14;;;;;;;97.80;13.28;;;;;;;26.94;44.76;99378.00;1716787;81;21451;-78
2022/08/23 08:11:46;;;;;;;120.57;14.70;;;;;;;26.90;43.71;99373.05;1730737;80;20953;-87
2022/08/23 08:14:13;;;;;;;72.58;12.35;;;;;;;26.98;45.28;99378.59;1740866;80;20975;-79
2022/08/23 08:16:45;;;;;;;93.67;13.72;;;;;;;27.17;46.45;99376.37;1739140;80;21180;-82
2022/08/23 08:19:14;;;;;;;101.62;13.18;;;;;;;27.39;44.81;99376.76;1723656;81;20943;-82
2022/08/23 08:22:00;;;;;;;142.70;18.92;;;;;;;27.50;43.75;99373.91;1746213;81;21532;-76
2022/08/23 08:24:45;;;;;;;102.70;12.88;;;;;;;27.62;44.04;99376.71;1738138;81;21007;-75
2022/08/23 08:27:13;;;;;;;132.80;15.30;;;;;;;27.68;43.13;99375.59;1740232;80;20958;-75
2022/08/23 08:29:42;;;;;;;97.67;13.53;;;;;;;27.72;43.54;99374.28;1742847;81;22003;-76
2022/08/23 08:32:09;;;;;;;151.93;17.85;;;;;;;27.75;42.47;99368.35;1738112;81;21078;-76
2022/08/23 08:34:37;;;;;;;114.50;15.30;;;;;;;27.76;42.91;99371.35;1740391;82;21474;-77
2022/08/23 08:37:04;;;;;;;121.35;15.28;;;;;;;27.92;44.11;99372.19;1737247;82;21868;-76
2022/08/23 08:39:31;;;;;;;130.75;16.15;;;;;;;28.08;42.99;99369.23;1741272;81;20915;-76
2022/08/23 08:42:37;;;;;;;130.37;16.73;;;;;;;28.22;42.32;99371.75;1745107;80;21087;-75
2022/08/23 08:45:24;;;;;;;143.50;17.07;;;;;;;28.39;42.50;99378.97;1714838;82;21367;-77
2022/08/23 08:47:57;;;;;;;119.67;14.95;;;;;;;28.54;40.73;99373.77;1731590;81;21432;-76
2022/08/23 08:50:39;;;;;;;130.03;16.50;;;;;;;28.58;42.24;99376.67;1742500;81;21593;-76
2022/08/23 08:53:12;;;;;;;135.50;16.97;;;;;;;28.81;42.13;99377.09;1730437;81;21515;-76
2022/08/23 08:55:50;;;;;;;158.55;17.17;;;;;;;29.06;41.58;99373.61;1706299;82;21769;-76
2022/08/23 08:58:29;;;;;;;97.55;13.45;;;;;;;29.21;40.57;99382.50;1693260;82;21546;-73
2022/08/23 09:00:56;;;;;;;128.72;13.55;;;;;;;29.44;41.92;99382.90;1696744;83;20997;-77
2022/08/23 09:03:23;;;;;;;127.90;15.90;;;;;;;29.75;41.82;99380.34;1728463;81;20902;-84
2022/08/23 09:06:38;;;;;;;100.95;13.80;;;;;;;29.97;39.87;99381.91;1702417;83;21123;-82
2022/08/23 09:09:39;;;;;;;132.03;17.32;;;;;;;30.00;38.28;99383.25;1664959;85;21494;-84
2022/08/23 09:12:33;;;;;;;108.35;14.93;;;;;;;29.92;39.55;99388.92;1726138;81;21043;-75
2022/08/23 09:15:39;;;;;;;119.72;16.85;;;;;;;29.96;40.16;99386.78;1730956;81;20928;-71
2022/08/23 09:18:14;;;;;;;113.20;15.68;;;;;;;30.06;37.75;99384.23;1656858;84;20983;-73
2022/08/23 09:20:43;;;;;;;126.65;14.95;;;;;;;29.96;40.12;99385.98;1695851;82;21490;-73
2022/08/23 09:23:19;;;;;;;129.57;15.78;;;;;;;30.08;40.29;99381.75;1737881;81;21251;-75
2022/08/23 09:25:54;;;;;;;152.10;18.52;;;;;;;30.25;38.73;99383.85;1716693;82;21490;-85
2022/08/23 09:28:23;;;;;;;104.60;13.88;;;;;;;30.23;38.45;99387.76;1726834;81;21000;-84
2022/08/23 09:30:55;;;;;;;118.77;15.35;;;;;;;30.08;37.50;99381.75;1691978;83;20884;-84
2022/08/23 09:33:42;;;;;;;128.23;18.55;;;;;;;30.03;39.08;99387.21;1731678;82;21140;-76
2022/08/23 09:36:25;;;;;;;176.20;19.25;;;;;;;30.07;38.27;99390.07;1688968;83;21166;-75
2022/08/23 09:39:09;;;;;;;132.00;16.25;;;;;;;30.00;37.58;99396.60;1673935;84;21001;-75
2022/08/23 09:41:40;;;;;;;114.85;14.85;;;;;;;29.86;38.19;99397.80;1675206;84;21071;-77
2022/08/23 09:44:12;;;;;;;159.90;20.65;;;;;;;29.90;39.12;99392.83;1708988;83;21021;-80
2022/08/23 09:46:43;;;;;;;139.62;19.20;;;;;;;30.16;39.16;99397.89;1661960;84;21586;-73
2022/08/23 09:49:26;;;;;;;107.45;14.80;;;;;;;30.28;37.74;99390.64;1706650;83;21136;-77
2022/08/23 09:52:00;;;;;;;118.40;16.95;;;;;;;30.37;37.61;99391.55;1706860;83;21463;-77
2022/08/23 09:54:34;;;;;;;125.60;14.58;;;;;;;30.53;38.74;99386.38;1691494;83;20944;-77
2022/08/23 09:57:12;;;;;;;100.78;13.80;;;;;;;30.77;38.24;99389.63;1676282;85;20957;-77
2022/08/23 09:59:50;;;;;;;121.50;14.18;;;;;;;30.99;38.47;99391.90;1730314;82;21027;-76
2022/08/23 10:02:26;;;;;;;86.57;11.63;;;;;;;31.24;37.96;99393.06;1699187;83;21579;-75
2022/08/23 10:05:04;;;;;;;97.42;14.70;;;;;;;31.49;36.51;99386.64;1698666;83;21016;-78
2022/08/23 10:07:40;;;;;;;89.87;12.20;;;;;;;31.51;36.33;99401.16;1757686;80;21450;-78
2022/08/23 10:10:32;;;;;;;88.90;14.30;;;;;;;31.38;36.33;99399.02;1746003;81;21495;-73
2022/08/23 10:13:02;;;;;;;106.27;13.22;;;;;;;31.33;36.83;99400.22;1748376;80;20902;-75
2022/08/23 10:16:11;;;;;;;90.60;12.45;;;;;;;31.32;37.13;99402.27;1738680;81;21742;-73
2022/08/23 10:19:04;;;;;;;95.28;12.15;;;;;;;31.38;36.18;99403.89;1763826;81;21003;-73
2022/08/23 10:21:51;;;;;;;78.23;11.60;;;;;;;31.33;36.79;99398.81;1775630;80;20967;-77
2022/08/23 10:24:29;;;;;;;154.18;16.40;;;;;;;31.41;36.37;99399.51;1756834;80;20982;-77
2022/08/23 10:30:30;;;;;;;80.62;12.45;;;;;;;31.63;35.28;99402.34;1772864;80;21455;-71
2022/08/23 10:33:14;;;;;;;87.42;12.23;;;;;;;31.63;34.27;99405.81;1744912;80;21525;-76
2022/08/23 10:35:57;;;;;;;84.00;11.48;;;;;;;31.60;34.43;99399.02;1759151;80;20987;-71
2022/08/23 10:38:44;;;;;;;;;;;;;;;31.55;34.13;99398.19;1758659;80;21458;-73
2022/08/23 10:41:59;;;;;;;98.33;11.30;;;;;;;31.58;35.29;99402.16;1750964;80;20082;-80
2022/08/23 10:44:52;;;;;;;84.07;10.85;;;;;;;31.79;34.71;99412.08;1764086;80;21163;-74
2022/08/23 10:47:40;;;;;;;96.97;13.18;;;;;;;31.91;34.62;99401.89;1752816;80;20984;-77
2022/08/23 10:50:19;;;;;;;74.62;10.48;;;;;;;31.79;34.09;99407.02;1753476;80;20951;-75
2022/08/23 10:53:05;;;;;;;73.33;9.83;;;;;;;31.69;34.00;99403.36;1756205;80;20984;-82
2022/08/23 10:56:04;;;;;;;58.25;8.63;;;;;;;31.76;33.40;99419.33;1764696;80;21006;-84
2022/08/23 10:58:41;;;;;;;61.53;9.08;;;;;;;31.65;34.23;99418.28;1745263;80;21423;-76
2022/08/23 11:01:09;;;;;;;61.45;9.08;;;;;;;31.71;33.67;99420.72;1760153;80;20900;-73
2022/08/23 11:03:43;;;;;;;69.95;8.73;;;;;;;31.77;32.37;99428.01;1737932;80;21009;-73
2022/08/23 11:06:39;;;;;;;59.65;7.33;;;;;;;31.71;32.75;99419.30;1766131;80;20922;-75
2022/08/23 11:09:21;;;;;;;60.85;8.73;;;;;;;31.59;31.38;99426.43;1759217;80;21034;-77
2022/08/23 11:12:12;;;;;;;58.15;7.70;;;;;;;31.46;32.16;99425.86;1713090;82;21151;-77
2022/08/23 11:14:58;;;;;;;47.40;6.80;;;;;;;31.59;32.52;99425.01;1680048;84;21038;-76
2022/08/23 11:17:51;;;;;;;34.60;6.30;;;;;;;31.90;31.46;99419.39;1746451;81;21065;-76
2022/08/23 11:20:54;;;;;;;39.48;5.67;;;;;;;31.93;30.25;99424.93;1728001;81;20963;-76
2022/08/23 11:24:01;;;;;;;30.72;5.65;;;;;;;31.83;31.03;99419.03;1742698;81;21053;-79
2022/08/23 11:27:03;;;;;;;39.63;6.08;;;;;;;32.02;30.57;99424.98;1743035;81;20943;-81
2022/08/23 11:29:35;;;;;;;36.17;5.75;;;;;;;32.13;29.48;99425.98;1640833;85;21056;-80
2022/08/23 11:32:36;;;;;;;38.88;5.12;;;;;;;32.17;31.01;99421.75;1600188;86;21055;-75
2022/08/23 11:35:26;;;;;;;20.45;4.55;;;;;;;32.44;27.91;99421.08;1644625;85;21013;-76
2022/08/23 11:38:04;;;;;;;27.17;4.10;;;;;;;32.48;26.36;99423.78;1640902;86;21139;-76
2022/08/23 11:40:54;;;;;;;24.67;4.28;;;;;;;32.30;27.73;99429.42;1657737;86;21024;-76
2022/08/23 11:43:36;;;;;;;22.87;4.20;;;;;;;32.27;27.29;99420.41;1661551;86;21425;-75
2022/08/23 11:46:30;;;;;;;25.90;4.22;;;;;;;32.29;25.69;99421.52;1657759;85;21072;-75
2022/08/23 11:49:28;;;;;;;20.20;4.20;;;;;;;32.38;26.60;99410.80;1658672;85;21065;-79
2022/08/23 11:52:27;;;;;;;23.22;3.42;;;;;;;32.40;26.52;99434.64;1643542;86;21123;-78
2022/08/23 11:55:34;;;;;;;20.25;3.90;;;;;;;32.50;26.08;99426.95;1652163;86;22626;-85
2022/08/23 11:58:30;;;;;;;18.00;3.40;;;;;;;32.58;26.11;99443.08;1631939;86;21029;-72
2022/08/23 12:01:10;;;;;;;31.95;3.95;;;;;;;32.55;25.70;99443.38;1655382;86;21014;-78
2022/08/23 12:04:13;;;;;;;17.82;3.75;;;;;;;32.50;25.57;99432.62;1603374;88;21561;-78
2022/08/23 12:06:51;;;;;;;23.55;3.92;;;;;;;32.61;26.31;99440.72;1593084;88;20972;-76
2022/08/23 12:12:21;;;;;;;17.30;3.20;;;;;;;32.93;25.53;99432.31;1622688;87;21571;-75
2022/08/23 12:14:54;;;;;;;15.38;3.33;;;;;;;32.87;25.24;99440.67;1632587;86;21049;-76
2022/08/23 12:17:47;;;;;;;22.20;3.72;;;;;;;32.70;26.03;99445.80;1626897;86;21018;-75
2022/08/23 12:20:20;;;;;;;20.20;4.08;;;;;;;32.61;26.47;99444.34;1633463;86;20970;-75
2022/08/23 12:23:13;;;;;;;16.90;4.22;;;;;;;32.70;25.50;99438.70;1640175;87;21516;-75